sensor_id;sensor_type;location;lat;lon;timestamp;P1;durP1;ratioP1;P2;durP2;ratioP2
77234;SDS011;66253;50.526;14.974;2024-01-15T00:02:08;13.50;;;4.70;;
77234;SDS011;66253;50.526;14.974;2024-01-15T00:04:37;10.30;;;3.90;;
77234;SDS011;66253;50.526;14.974;2024-01-15T00:07:08;9.00;;;3.10;;
77234;SDS011;66253;50.526;14.974;2024-01-15T00:09:37;12.40;;;4.60;;
77234;SDS011;66253;50.526;14.974;2024-01-15T00:12:06;12.10;;;4.20;;
77234;SDS011;66253;50.526;14.974;2024-01-15T00:14:34;11.50;;;3.90;;
77234;SDS011;66253;50.526;14.974;2024-01-15T00:17:03;11.70;;;4.20;;
77234;SDS011;66253;50.526;14.974;2024-01-15T00:19:31;13.20;;;4.80;;
77234;SDS011;66253;50.526;14.974;2024-01-15T00:21:59;13.40;;;4.20;;
77234;SDS011;66253;50.526;14.974;2024-01-15T00:24:28;10.30;;;3.60;;
77234;SDS011;66253;50.526;14.974;2024-01-15T00:26:56;9.90;;;3.90;;
77234;SDS011;66253;50.526;14.974;2024-01-15T00:29:24;11.40;;;4.60;;
77234;SDS011;66253;50.526;14.974;2024-01-15T00:31:52;8.70;;;3.50;;
77234;SDS011;66253;50.526;14.974;2024-01-15T00:34:21;9.60;;;3.40;;
77234;SDS011;66253;50.526;14.974;2024-01-15T00:36:49;8.50;;;2.50;;
77234;SDS011;66253;50.526;14.974;2024-01-15T00:39:17;10.80;;;3.60;;
77234;SDS011;66253;50.526;14.974;2024-01-15T00:41:45;12.20;;;3.90;;
77234;SDS011;66253;50.526;14.974;2024-01-15T00:44:13;11.10;;;3.60;;
77234;SDS011;66253;50.526;14.974;2024-01-15T00:46:45;9.20;;;3.20;;
77234;SDS011;66253;50.526;14.974;2024-01-15T00:49:13;8.60;;;3.50;;
77234;SDS011;66253;50.526;14.974;2024-01-15T00:51:42;12.10;;;4.10;;
77234;SDS011;66253;50.526;14.974;2024-01-15T00:54:10;11.30;;;3.70;;
77234;SDS011;66253;50.526;14.974;2024-01-15T00:56:38;10.50;;;3.50;;
77234;SDS011;66253;50.526;14.974;2024-01-15T00:59:06;11.20;;;4.00;;
77234;SDS011;66253;50.526;14.974;2024-01-15T01:01:34;10.60;;;3.60;;
77234;SDS011;66253;50.526;14.974;2024-01-15T01:04:03;9.40;;;3.50;;
77234;SDS011;66253;50.526;14.974;2024-01-15T01:06:31;12.10;;;4.40;;
77234;SDS011;66253;50.526;14.974;2024-01-15T01:08:59;11.30;;;3.80;;
77234;SDS011;66253;50.526;14.974;2024-01-15T01:11:29;11.50;;;4.40;;
77234;SDS011;66253;50.526;14.974;2024-01-15T01:13:58;10.50;;;4.70;;
77234;SDS011;66253;50.526;14.974;2024-01-15T01:16:26;11.70;;;4.40;;
77234;SDS011;66253;50.526;14.974;2024-01-15T01:18:54;12.60;;;4.20;;
77234;SDS011;66253;50.526;14.974;2024-01-15T01:21:22;12.00;;;4.30;;
77234;SDS011;66253;50.526;14.974;2024-01-15T01:23:51;7.90;;;2.70;;
77234;SDS011;66253;50.526;14.974;2024-01-15T01:26:19;11.60;;;5.00;;
77234;SDS011;66253;50.526;14.974;2024-01-15T01:28:47;11.40;;;3.90;;
77234;SDS011;66253;50.526;14.974;2024-01-15T01:31:15;13.90;;;4.40;;
77234;SDS011;66253;50.526;14.974;2024-01-15T01:33:44;13.70;;;4.60;;
77234;SDS011;66253;50.526;14.974;2024-01-15T01:36:12;12.10;;;4.60;;
77234;SDS011;66253;50.526;14.974;2024-01-15T01:38:40;15.30;;;5.20;;
77234;SDS011;66253;50.526;14.974;2024-01-15T01:41:08;13.90;;;4.90;;
77234;SDS011;66253;50.526;14.974;2024-01-15T01:43:37;12.70;;;4.60;;
77234;SDS011;66253;50.526;14.974;2024-01-15T01:46:05;14.30;;;5.10;;
77234;SDS011;66253;50.526;14.974;2024-01-15T01:48:34;14.60;;;4.80;;
77234;SDS011;66253;50.526;14.974;2024-01-15T01:51:03;15.20;;;5.00;;
77234;SDS011;66253;50.526;14.974;2024-01-15T01:53:32;15.90;;;4.90;;
77234;SDS011;66253;50.526;14.974;2024-01-15T01:56:03;11.90;;;4.70;;
77234;SDS011;66253;50.526;14.974;2024-01-15T01:58:32;17.50;;;6.00;;
77234;SDS011;66253;50.526;14.974;2024-01-15T02:01:01;12.40;;;4.80;;
77234;SDS011;66253;50.526;14.974;2024-01-15T02:03:30;13.30;;;4.60;;
77234;SDS011;66253;50.526;14.974;2024-01-15T02:05:58;14.60;;;4.50;;
77234;SDS011;66253;50.526;14.974;2024-01-15T02:08:28;15.10;;;5.50;;
77234;SDS011;66253;50.526;14.974;2024-01-15T02:10:57;14.50;;;5.00;;
77234;SDS011;66253;50.526;14.974;2024-01-15T02:13:25;17.30;;;5.50;;
77234;SDS011;66253;50.526;14.974;2024-01-15T02:15:54;17.40;;;6.30;;
77234;SDS011;66253;50.526;14.974;2024-01-15T02:18:23;14.40;;;4.80;;
77234;SDS011;66253;50.526;14.974;2024-01-15T02:20:52;16.10;;;5.40;;
77234;SDS011;66253;50.526;14.974;2024-01-15T02:23:20;13.50;;;5.00;;
77234;SDS011;66253;50.526;14.974;2024-01-15T02:25:48;14.00;;;5.00;;
77234;SDS011;66253;50.526;14.974;2024-01-15T02:28:17;13.60;;;5.10;;
77234;SDS011;66253;50.526;14.974;2024-01-15T02:30:45;18.30;;;6.20;;
77234;SDS011;66253;50.526;14.974;2024-01-15T02:33:14;14.80;;;5.20;;
77234;SDS011;66253;50.526;14.974;2024-01-15T02:35:42;16.20;;;5.40;;
77234;SDS011;66253;50.526;14.974;2024-01-15T02:38:10;14.20;;;5.30;;
77234;SDS011;66253;50.526;14.974;2024-01-15T02:40:39;12.90;;;4.90;;
77234;SDS011;66253;50.526;14.974;2024-01-15T02:43:07;15.30;;;6.00;;
77234;SDS011;66253;50.526;14.974;2024-01-15T02:45:36;15.80;;;5.90;;
77234;SDS011;66253;50.526;14.974;2024-01-15T02:48:04;14.50;;;5.30;;
77234;SDS011;66253;50.526;14.974;2024-01-15T02:50:33;13.00;;;4.60;;
77234;SDS011;66253;50.526;14.974;2024-01-15T02:53:01;14.20;;;5.60;;
77234;SDS011;66253;50.526;14.974;2024-01-15T02:55:30;13.50;;;6.20;;
77234;SDS011;66253;50.526;14.974;2024-01-15T02:57:58;12.90;;;5.00;;
77234;SDS011;66253;50.526;14.974;2024-01-15T03:00:26;15.70;;;5.30;;
77234;SDS011;66253;50.526;14.974;2024-01-15T03:02:54;15.80;;;5.90;;
77234;SDS011;66253;50.526;14.974;2024-01-15T03:05:23;13.60;;;5.10;;
77234;SDS011;66253;50.526;14.974;2024-01-15T03:07:51;14.30;;;5.10;;
77234;SDS011;66253;50.526;14.974;2024-01-15T03:10:19;14.20;;;4.50;;
77234;SDS011;66253;50.526;14.974;2024-01-15T03:12:47;11.20;;;4.30;;
77234;SDS011;66253;50.526;14.974;2024-01-15T03:15:16;14.50;;;4.50;;
77234;SDS011;66253;50.526;14.974;2024-01-15T03:17:44;14.60;;;4.90;;
77234;SDS011;66253;50.526;14.974;2024-01-15T03:20:12;12.40;;;4.30;;
77234;SDS011;66253;50.526;14.974;2024-01-15T03:22:40;12.00;;;4.60;;
77234;SDS011;66253;50.526;14.974;2024-01-15T03:25:09;15.00;;;4.80;;
77234;SDS011;66253;50.526;14.974;2024-01-15T03:27:37;11.20;;;4.10;;
77234;SDS011;66253;50.526;14.974;2024-01-15T03:30:06;13.00;;;4.60;;
77234;SDS011;66253;50.526;14.974;2024-01-15T03:32:36;14.90;;;5.30;;
77234;SDS011;66253;50.526;14.974;2024-01-15T03:35:04;14.30;;;6.70;;
77234;SDS011;66253;50.526;14.974;2024-01-15T03:37:33;13.60;;;5.70;;
77234;SDS011;66253;50.526;14.974;2024-01-15T03:40:02;12.90;;;5.20;;
77234;SDS011;66253;50.526;14.974;2024-01-15T03:42:31;12.60;;;4.90;;
77234;SDS011;66253;50.526;14.974;2024-01-15T03:44:59;15.10;;;6.10;;
77234;SDS011;66253;50.526;14.974;2024-01-15T03:47:29;12.00;;;5.50;;
77234;SDS011;66253;50.526;14.974;2024-01-15T03:49:57;15.20;;;5.70;;
77234;SDS011;66253;50.526;14.974;2024-01-15T03:52:26;14.40;;;5.00;;
77234;SDS011;66253;50.526;14.974;2024-01-15T03:54:55;14.50;;;5.40;;
77234;SDS011;66253;50.526;14.974;2024-01-15T03:57:23;11.90;;;4.70;;
77234;SDS011;66253;50.526;14.974;2024-01-15T03:59:51;12.80;;;4.80;;
77234;SDS011;66253;50.526;14.974;2024-01-15T04:02:19;13.30;;;4.80;;
77234;SDS011;66253;50.526;14.974;2024-01-15T04:04:47;13.90;;;4.50;;
77234;SDS011;66253;50.526;14.974;2024-01-15T04:07:16;16.40;;;8.60;;
77234;SDS011;66253;50.526;14.974;2024-01-15T04:09:44;14.10;;;5.60;;
77234;SDS011;66253;50.526;14.974;2024-01-15T04:12:12;12.80;;;4.00;;
77234;SDS011;66253;50.526;14.974;2024-01-15T04:14:40;10.90;;;4.30;;
77234;SDS011;66253;50.526;14.974;2024-01-15T04:17:09;11.50;;;4.90;;
77234;SDS011;66253;50.526;14.974;2024-01-15T04:19:37;13.10;;;5.40;;
77234;SDS011;66253;50.526;14.974;2024-01-15T04:22:05;13.00;;;4.60;;
77234;SDS011;66253;50.526;14.974;2024-01-15T04:24:33;12.00;;;4.60;;
77234;SDS011;66253;50.526;14.974;2024-01-15T04:27:02;12.20;;;4.60;;
77234;SDS011;66253;50.526;14.974;2024-01-15T04:29:30;13.40;;;5.00;;
77234;SDS011;66253;50.526;14.974;2024-01-15T04:31:59;12.70;;;4.50;;
77234;SDS011;66253;50.526;14.974;2024-01-15T04:34:29;10.80;;;4.00;;
77234;SDS011;66253;50.526;14.974;2024-01-15T04:36:57;10.10;;;3.30;;
77234;SDS011;66253;50.526;14.974;2024-01-15T04:39:25;12.40;;;3.60;;
77234;SDS011;66253;50.526;14.974;2024-01-15T04:41:56;10.60;;;4.00;;
77234;SDS011;66253;50.526;14.974;2024-01-15T04:44:25;8.90;;;3.10;;
77234;SDS011;66253;50.526;14.974;2024-01-15T04:46:55;11.50;;;4.30;;
77234;SDS011;66253;50.526;14.974;2024-01-15T04:49:23;9.40;;;3.60;;
77234;SDS011;66253;50.526;14.974;2024-01-15T04:51:51;8.70;;;3.20;;
77234;SDS011;66253;50.526;14.974;2024-01-15T04:54:19;8.80;;;3.70;;
77234;SDS011;66253;50.526;14.974;2024-01-15T04:56:51;9.60;;;3.50;;
77234;SDS011;66253;50.526;14.974;2024-01-15T04:59:19;8.40;;;2.90;;
77234;SDS011;66253;50.526;14.974;2024-01-15T05:01:47;9.50;;;3.20;;
77234;SDS011;66253;50.526;14.974;2024-01-15T05:04:15;8.60;;;3.40;;
77234;SDS011;66253;50.526;14.974;2024-01-15T05:06:46;9.60;;;3.30;;
77234;SDS011;66253;50.526;14.974;2024-01-15T05:09:14;8.10;;;3.10;;
77234;SDS011;66253;50.526;14.974;2024-01-15T05:11:42;10.70;;;4.00;;
77234;SDS011;66253;50.526;14.974;2024-01-15T05:14:10;11.90;;;3.90;;
77234;SDS011;66253;50.526;14.974;2024-01-15T05:16:39;10.70;;;3.60;;
77234;SDS011;66253;50.526;14.974;2024-01-15T05:19:13;10.50;;;4.00;;
77234;SDS011;66253;50.526;14.974;2024-01-15T05:21:41;10.00;;;3.00;;
77234;SDS011;66253;50.526;14.974;2024-01-15T05:24:09;8.00;;;3.30;;
77234;SDS011;66253;50.526;14.974;2024-01-15T05:26:38;9.90;;;3.40;;
77234;SDS011;66253;50.526;14.974;2024-01-15T05:29:06;9.40;;;2.70;;
77234;SDS011;66253;50.526;14.974;2024-01-15T05:31:34;7.80;;;2.60;;
77234;SDS011;66253;50.526;14.974;2024-01-15T05:34:03;8.90;;;3.30;;
77234;SDS011;66253;50.526;14.974;2024-01-15T05:36:31;9.00;;;3.30;;
77234;SDS011;66253;50.526;14.974;2024-01-15T05:39:00;8.30;;;3.10;;
77234;SDS011;66253;50.526;14.974;2024-01-15T05:41:29;10.00;;;3.90;;
77234;SDS011;66253;50.526;14.974;2024-01-15T05:43:57;12.70;;;3.70;;
77234;SDS011;66253;50.526;14.974;2024-01-15T05:46:26;12.20;;;3.80;;
77234;SDS011;66253;50.526;14.974;2024-01-15T05:48:54;10.50;;;2.90;;
77234;SDS011;66253;50.526;14.974;2024-01-15T05:51:22;9.40;;;3.70;;
77234;SDS011;66253;50.526;14.974;2024-01-15T05:53:51;8.20;;;2.40;;
77234;SDS011;66253;50.526;14.974;2024-01-15T05:56:19;8.90;;;2.70;;
77234;SDS011;66253;50.526;14.974;2024-01-15T05:58:47;10.30;;;3.70;;
77234;SDS011;66253;50.526;14.974;2024-01-15T06:01:15;12.90;;;4.40;;
77234;SDS011;66253;50.526;14.974;2024-01-15T06:03:43;11.70;;;3.10;;
77234;SDS011;66253;50.526;14.974;2024-01-15T06:06:12;8.10;;;2.70;;
77234;SDS011;66253;50.526;14.974;2024-01-15T06:08:40;8.90;;;3.80;;
77234;SDS011;66253;50.526;14.974;2024-01-15T06:11:08;9.40;;;3.40;;
77234;SDS011;66253;50.526;14.974;2024-01-15T06:13:36;9.50;;;3.20;;
77234;SDS011;66253;50.526;14.974;2024-01-15T06:16:12;9.50;;;3.00;;
77234;SDS011;66253;50.526;14.974;2024-01-15T06:18:44;10.50;;;3.90;;
77234;SDS011;66253;50.526;14.974;2024-01-15T06:21:12;9.30;;;3.60;;
77234;SDS011;66253;50.526;14.974;2024-01-15T06:23:40;10.60;;;3.70;;
77234;SDS011;66253;50.526;14.974;2024-01-15T06:26:08;13.30;;;3.70;;
77234;SDS011;66253;50.526;14.974;2024-01-15T06:28:40;10.80;;;3.90;;
77234;SDS011;66253;50.526;14.974;2024-01-15T06:31:08;10.00;;;3.50;;
77234;SDS011;66253;50.526;14.974;2024-01-15T06:33:37;10.80;;;3.90;;
77234;SDS011;66253;50.526;14.974;2024-01-15T06:36:06;10.40;;;3.70;;
77234;SDS011;66253;50.526;14.974;2024-01-15T06:38:34;10.30;;;3.00;;
77234;SDS011;66253;50.526;14.974;2024-01-15T06:41:03;10.80;;;4.20;;
77234;SDS011;66253;50.526;14.974;2024-01-15T06:43:31;12.20;;;4.50;;
77234;SDS011;66253;50.526;14.974;2024-01-15T06:46:00;11.40;;;3.80;;
77234;SDS011;66253;50.526;14.974;2024-01-15T06:48:28;11.40;;;3.80;;
77234;SDS011;66253;50.526;14.974;2024-01-15T06:50:57;9.70;;;3.10;;
77234;SDS011;66253;50.526;14.974;2024-01-15T06:53:25;11.00;;;3.80;;
77234;SDS011;66253;50.526;14.974;2024-01-15T06:55:53;10.60;;;3.60;;
77234;SDS011;66253;50.526;14.974;2024-01-15T06:58:22;11.70;;;3.70;;
77234;SDS011;66253;50.526;14.974;2024-01-15T07:00:50;9.80;;;4.20;;
77234;SDS011;66253;50.526;14.974;2024-01-15T07:03:18;8.50;;;2.60;;
77234;SDS011;66253;50.526;14.974;2024-01-15T07:05:47;9.50;;;4.10;;
77234;SDS011;66253;50.526;14.974;2024-01-15T07:08:15;10.30;;;3.50;;
77234;SDS011;66253;50.526;14.974;2024-01-15T07:10:45;11.20;;;3.60;;
77234;SDS011;66253;50.526;14.974;2024-01-15T07:13:13;11.90;;;5.40;;
77234;SDS011;66253;50.526;14.974;2024-01-15T07:15:42;16.00;;;4.50;;
77234;SDS011;66253;50.526;14.974;2024-01-15T07:18:10;11.50;;;3.30;;
77234;SDS011;66253;50.526;14.974;2024-01-15T07:20:38;14.10;;;5.40;;
77234;SDS011;66253;50.526;14.974;2024-01-15T07:23:07;14.00;;;4.90;;
77234;SDS011;66253;50.526;14.974;2024-01-15T07:25:35;13.00;;;4.90;;
77234;SDS011;66253;50.526;14.974;2024-01-15T07:28:04;14.30;;;4.20;;
77234;SDS011;66253;50.526;14.974;2024-01-15T07:30:32;11.30;;;3.80;;
77234;SDS011;66253;50.526;14.974;2024-01-15T07:33:01;12.20;;;4.60;;
77234;SDS011;66253;50.526;14.974;2024-01-15T07:35:29;13.30;;;5.10;;
77234;SDS011;66253;50.526;14.974;2024-01-15T07:37:58;13.00;;;5.30;;
77234;SDS011;66253;50.526;14.974;2024-01-15T07:40:26;11.40;;;3.90;;
77234;SDS011;66253;50.526;14.974;2024-01-15T07:42:54;12.20;;;3.60;;
77234;SDS011;66253;50.526;14.974;2024-01-15T07:45:23;12.60;;;4.00;;
77234;SDS011;66253;50.526;14.974;2024-01-15T07:47:51;10.80;;;3.60;;
77234;SDS011;66253;50.526;14.974;2024-01-15T07:50:19;14.20;;;4.40;;
77234;SDS011;66253;50.526;14.974;2024-01-15T07:52:48;13.20;;;3.80;;
77234;SDS011;66253;50.526;14.974;2024-01-15T07:55:16;9.50;;;3.60;;
77234;SDS011;66253;50.526;14.974;2024-01-15T07:57:45;12.10;;;4.40;;
77234;SDS011;66253;50.526;14.974;2024-01-15T08:00:13;11.30;;;3.50;;
77234;SDS011;66253;50.526;14.974;2024-01-15T08:02:42;11.40;;;3.50;;
77234;SDS011;66253;50.526;14.974;2024-01-15T08:05:11;15.00;;;5.30;;
77234;SDS011;66253;50.526;14.974;2024-01-15T08:07:39;12.10;;;3.80;;
77234;SDS011;66253;50.526;14.974;2024-01-15T08:10:08;13.00;;;4.20;;
77234;SDS011;66253;50.526;14.974;2024-01-15T08:12:36;14.50;;;5.00;;
77234;SDS011;66253;50.526;14.974;2024-01-15T08:15:05;10.40;;;3.60;;
77234;SDS011;66253;50.526;14.974;2024-01-15T08:17:34;11.50;;;4.30;;
77234;SDS011;66253;50.526;14.974;2024-01-15T08:20:02;11.60;;;4.80;;
77234;SDS011;66253;50.526;14.974;2024-01-15T08:22:32;9.30;;;3.20;;
77234;SDS011;66253;50.526;14.974;2024-01-15T08:25:00;11.40;;;3.80;;
77234;SDS011;66253;50.526;14.974;2024-01-15T08:27:33;7.80;;;2.40;;
77234;SDS011;66253;50.526;14.974;2024-01-15T08:30:01;8.20;;;2.60;;
77234;SDS011;66253;50.526;14.974;2024-01-15T08:32:30;7.20;;;2.60;;
77234;SDS011;66253;50.526;14.974;2024-01-15T08:34:58;10.60;;;3.30;;
77234;SDS011;66253;50.526;14.974;2024-01-15T08:37:27;11.50;;;3.70;;
77234;SDS011;66253;50.526;14.974;2024-01-15T08:39:55;8.40;;;3.00;;
77234;SDS011;66253;50.526;14.974;2024-01-15T08:42:23;10.10;;;3.20;;
77234;SDS011;66253;50.526;14.974;2024-01-15T08:44:52;9.60;;;3.20;;
77234;SDS011;66253;50.526;14.974;2024-01-15T08:47:20;10.60;;;3.50;;
77234;SDS011;66253;50.526;14.974;2024-01-15T08:49:49;10.00;;;2.50;;
77234;SDS011;66253;50.526;14.974;2024-01-15T08:52:17;8.40;;;2.70;;
77234;SDS011;66253;50.526;14.974;2024-01-15T08:54:45;12.90;;;3.50;;
77234;SDS011;66253;50.526;14.974;2024-01-15T08:57:14;12.60;;;4.20;;
77234;SDS011;66253;50.526;14.974;2024-01-15T08:59:42;9.80;;;2.90;;
77234;SDS011;66253;50.526;14.974;2024-01-15T09:02:10;10.00;;;3.80;;
77234;SDS011;66253;50.526;14.974;2024-01-15T09:04:42;10.40;;;3.00;;
77234;SDS011;66253;50.526;14.974;2024-01-15T09:07:10;10.50;;;3.10;;
77234;SDS011;66253;50.526;14.974;2024-01-15T09:09:38;9.90;;;3.40;;
77234;SDS011;66253;50.526;14.974;2024-01-15T09:12:07;17.20;;;4.30;;
77234;SDS011;66253;50.526;14.974;2024-01-15T09:14:36;11.50;;;4.40;;
77234;SDS011;66253;50.526;14.974;2024-01-15T09:17:07;11.10;;;4.00;;
77234;SDS011;66253;50.526;14.974;2024-01-15T09:19:36;13.20;;;4.50;;
77234;SDS011;66253;50.526;14.974;2024-01-15T09:22:04;8.90;;;2.80;;
77234;SDS011;66253;50.526;14.974;2024-01-15T09:24:33;10.70;;;3.60;;
77234;SDS011;66253;50.526;14.974;2024-01-15T09:27:01;11.40;;;3.70;;
77234;SDS011;66253;50.526;14.974;2024-01-15T09:29:30;13.90;;;4.20;;
77234;SDS011;66253;50.526;14.974;2024-01-15T09:31:58;12.80;;;4.20;;
77234;SDS011;66253;50.526;14.974;2024-01-15T09:34:27;10.30;;;3.30;;
77234;SDS011;66253;50.526;14.974;2024-01-15T09:36:56;10.80;;;3.30;;
77234;SDS011;66253;50.526;14.974;2024-01-15T09:39:24;10.40;;;3.50;;
77234;SDS011;66253;50.526;14.974;2024-01-15T09:41:52;8.80;;;2.20;;
77234;SDS011;66253;50.526;14.974;2024-01-15T09:44:21;8.50;;;2.50;;
77234;SDS011;66253;50.526;14.974;2024-01-15T09:46:50;7.50;;;2.90;;
77234;SDS011;66253;50.526;14.974;2024-01-15T09:49:20;7.30;;;3.00;;
77234;SDS011;66253;50.526;14.974;2024-01-15T09:51:48;8.90;;;3.00;;
77234;SDS011;66253;50.526;14.974;2024-01-15T09:54:17;6.30;;;1.80;;
77234;SDS011;66253;50.526;14.974;2024-01-15T09:56:46;9.30;;;2.90;;
77234;SDS011;66253;50.526;14.974;2024-01-15T09:59:16;9.00;;;2.70;;
77234;SDS011;66253;50.526;14.974;2024-01-15T10:04:12;8.80;;;2.90;;
77234;SDS011;66253;50.526;14.974;2024-01-15T10:06:40;7.20;;;2.20;;
77234;SDS011;66253;50.526;14.974;2024-01-15T10:09:12;8.50;;;2.50;;
77234;SDS011;66253;50.526;14.974;2024-01-15T10:11:41;7.90;;;2.50;;
77234;SDS011;66253;50.526;14.974;2024-01-15T10:14:10;9.80;;;3.40;;
77234;SDS011;66253;50.526;14.974;2024-01-15T10:16:39;13.70;;;2.60;;
77234;SDS011;66253;50.526;14.974;2024-01-15T10:19:07;7.80;;;2.30;;
77234;SDS011;66253;50.526;14.974;2024-01-15T10:21:36;8.40;;;2.60;;
77234;SDS011;66253;50.526;14.974;2024-01-15T10:24:05;5.80;;;1.80;;
77234;SDS011;66253;50.526;14.974;2024-01-15T10:26:33;7.50;;;2.70;;
77234;SDS011;66253;50.526;14.974;2024-01-15T10:29:02;7.90;;;2.40;;
77234;SDS011;66253;50.526;14.974;2024-01-15T10:31:30;8.70;;;2.40;;
77234;SDS011;66253;50.526;14.974;2024-01-15T10:34:03;6.30;;;2.20;;
77234;SDS011;66253;50.526;14.974;2024-01-15T10:36:40;5.40;;;1.60;;
77234;SDS011;66253;50.526;14.974;2024-01-15T10:39:13;7.40;;;2.10;;
77234;SDS011;66253;50.526;14.974;2024-01-15T10:41:41;8.70;;;3.00;;
77234;SDS011;66253;50.526;14.974;2024-01-15T10:44:09;9.20;;;2.90;;
77234;SDS011;66253;50.526;14.974;2024-01-15T10:46:40;6.70;;;2.40;;
77234;SDS011;66253;50.526;14.974;2024-01-15T10:49:09;7.20;;;2.50;;
77234;SDS011;66253;50.526;14.974;2024-01-15T10:51:41;7.90;;;3.10;;
77234;SDS011;66253;50.526;14.974;2024-01-15T10:54:10;7.10;;;2.80;;
77234;SDS011;66253;50.526;14.974;2024-01-15T10:56:40;7.70;;;2.80;;
77234;SDS011;66253;50.526;14.974;2024-01-15T10:59:10;5.70;;;1.90;;
77234;SDS011;66253;50.526;14.974;2024-01-15T11:01:40;6.30;;;2.50;;
77234;SDS011;66253;50.526;14.974;2024-01-15T11:04:10;6.70;;;2.50;;
77234;SDS011;66253;50.526;14.974;2024-01-15T11:06:45;6.50;;;2.10;;
77234;SDS011;66253;50.526;14.974;2024-01-15T11:09:14;5.70;;;2.30;;
77234;SDS011;66253;50.526;14.974;2024-01-15T11:11:45;8.50;;;2.50;;
77234;SDS011;66253;50.526;14.974;2024-01-15T11:17:05;7.30;;;2.30;;
77234;SDS011;66253;50.526;14.974;2024-01-15T11:19:39;7.80;;;3.20;;
77234;SDS011;66253;50.526;14.974;2024-01-15T11:25:14;8.90;;;2.40;;
77234;SDS011;66253;50.526;14.974;2024-01-15T11:27:44;6.40;;;2.30;;
77234;SDS011;66253;50.526;14.974;2024-01-15T11:30:14;5.70;;;2.10;;
77234;SDS011;66253;50.526;14.974;2024-01-15T11:32:42;6.60;;;1.70;;
77234;SDS011;66253;50.526;14.974;2024-01-15T11:35:11;10.00;;;3.00;;
77234;SDS011;66253;50.526;14.974;2024-01-15T11:37:58;7.10;;;2.20;;
77234;SDS011;66253;50.526;14.974;2024-01-15T11:40:42;6.50;;;2.30;;
77234;SDS011;66253;50.526;14.974;2024-01-15T11:43:12;8.40;;;3.00;;
77234;SDS011;66253;50.526;14.974;2024-01-15T11:45:41;6.10;;;1.60;;
77234;SDS011;66253;50.526;14.974;2024-01-15T11:48:19;7.40;;;2.60;;
77234;SDS011;66253;50.526;14.974;2024-01-15T11:50:48;6.60;;;2.00;;
77234;SDS011;66253;50.526;14.974;2024-01-15T11:53:17;6.00;;;2.20;;
77234;SDS011;66253;50.526;14.974;2024-01-15T11:55:53;7.40;;;2.30;;
77234;SDS011;66253;50.526;14.974;2024-01-15T11:58:25;6.20;;;1.70;;
77234;SDS011;66253;50.526;14.974;2024-01-15T12:00:54;6.80;;;2.30;;
77234;SDS011;66253;50.526;14.974;2024-01-15T12:03:23;6.70;;;2.10;;
77234;SDS011;66253;50.526;14.974;2024-01-15T12:05:53;7.10;;;2.80;;
77234;SDS011;66253;50.526;14.974;2024-01-15T12:08:24;6.80;;;2.10;;
77234;SDS011;66253;50.526;14.974;2024-01-15T12:10:53;7.20;;;2.10;;
77234;SDS011;66253;50.526;14.974;2024-01-15T12:13:21;6.70;;;2.20;;
77234;SDS011;66253;50.526;14.974;2024-01-15T12:15:49;5.70;;;2.40;;
77234;SDS011;66253;50.526;14.974;2024-01-15T12:18:20;9.20;;;2.80;;
77234;SDS011;66253;50.526;14.974;2024-01-15T12:20:49;7.80;;;3.30;;
77234;SDS011;66253;50.526;14.974;2024-01-15T12:23:20;5.00;;;1.60;;
77234;SDS011;66253;50.526;14.974;2024-01-15T12:25:50;6.70;;;1.90;;
77234;SDS011;66253;50.526;14.974;2024-01-15T12:28:18;6.80;;;2.50;;
77234;SDS011;66253;50.526;14.974;2024-01-15T12:30:47;7.00;;;2.40;;
77234;SDS011;66253;50.526;14.974;2024-01-15T12:33:17;6.70;;;2.30;;
77234;SDS011;66253;50.526;14.974;2024-01-15T12:35:46;7.30;;;2.90;;
77234;SDS011;66253;50.526;14.974;2024-01-15T12:38:14;6.20;;;2.40;;
77234;SDS011;66253;50.526;14.974;2024-01-15T12:40:44;5.30;;;1.80;;
77234;SDS011;66253;50.526;14.974;2024-01-15T12:43:13;6.80;;;2.20;;
77234;SDS011;66253;50.526;14.974;2024-01-15T12:45:41;4.80;;;1.70;;
77234;SDS011;66253;50.526;14.974;2024-01-15T12:48:10;6.70;;;2.40;;
77234;SDS011;66253;50.526;14.974;2024-01-15T12:50:38;6.90;;;1.90;;
77234;SDS011;66253;50.526;14.974;2024-01-15T12:53:09;8.50;;;3.20;;
77234;SDS011;66253;50.526;14.974;2024-01-15T12:55:37;5.70;;;2.40;;
77234;SDS011;66253;50.526;14.974;2024-01-15T12:58:05;6.20;;;2.00;;
77234;SDS011;66253;50.526;14.974;2024-01-15T13:00:34;6.60;;;2.10;;
77234;SDS011;66253;50.526;14.974;2024-01-15T13:03:03;5.10;;;1.60;;
77234;SDS011;66253;50.526;14.974;2024-01-15T13:05:32;8.20;;;2.30;;
77234;SDS011;66253;50.526;14.974;2024-01-15T13:08:01;6.40;;;2.10;;
77234;SDS011;66253;50.526;14.974;2024-01-15T13:10:30;7.50;;;2.60;;
77234;SDS011;66253;50.526;14.974;2024-01-15T13:12:59;7.00;;;3.10;;
77234;SDS011;66253;50.526;14.974;2024-01-15T13:15:27;7.40;;;3.00;;
77234;SDS011;66253;50.526;14.974;2024-01-15T13:17:58;6.60;;;2.80;;
77234;SDS011;66253;50.526;14.974;2024-01-15T13:20:27;6.50;;;2.40;;
77234;SDS011;66253;50.526;14.974;2024-01-15T13:22:56;8.80;;;3.10;;
77234;SDS011;66253;50.526;14.974;2024-01-15T13:25:24;8.40;;;3.00;;
77234;SDS011;66253;50.526;14.974;2024-01-15T13:27:52;13.30;;;5.30;;
77234;SDS011;66253;50.526;14.974;2024-01-15T13:30:21;6.20;;;2.40;;
77234;SDS011;66253;50.526;14.974;2024-01-15T13:32:50;5.90;;;1.90;;
77234;SDS011;66253;50.526;14.974;2024-01-15T13:35:18;10.00;;;3.90;;
77234;SDS011;66253;50.526;14.974;2024-01-15T13:37:46;7.20;;;2.80;;
77234;SDS011;66253;50.526;14.974;2024-01-15T13:40:15;7.70;;;2.40;;
77234;SDS011;66253;50.526;14.974;2024-01-15T13:42:43;8.60;;;2.90;;
77234;SDS011;66253;50.526;14.974;2024-01-15T13:45:12;11.30;;;3.50;;
77234;SDS011;66253;50.526;14.974;2024-01-15T13:47:41;9.10;;;2.60;;
77234;SDS011;66253;50.526;14.974;2024-01-15T13:50:10;6.60;;;2.10;;
77234;SDS011;66253;50.526;14.974;2024-01-15T13:52:39;7.90;;;2.30;;
77234;SDS011;66253;50.526;14.974;2024-01-15T13:55:07;8.80;;;2.80;;
77234;SDS011;66253;50.526;14.974;2024-01-15T13:57:36;8.30;;;2.80;;
77234;SDS011;66253;50.526;14.974;2024-01-15T14:00:05;9.50;;;2.90;;
77234;SDS011;66253;50.526;14.974;2024-01-15T14:02:35;8.60;;;3.20;;
77234;SDS011;66253;50.526;14.974;2024-01-15T14:05:04;7.90;;;3.00;;
77234;SDS011;66253;50.526;14.974;2024-01-15T14:07:32;8.80;;;3.00;;
77234;SDS011;66253;50.526;14.974;2024-01-15T14:10:01;9.00;;;3.70;;
77234;SDS011;66253;50.526;14.974;2024-01-15T14:12:30;10.10;;;4.30;;
77234;SDS011;66253;50.526;14.974;2024-01-15T14:14:58;7.00;;;2.40;;
77234;SDS011;66253;50.526;14.974;2024-01-15T14:19:55;6.00;;;1.80;;
77234;SDS011;66253;50.526;14.974;2024-01-15T14:22:23;10.30;;;2.30;;
77234;SDS011;66253;50.526;14.974;2024-01-15T14:24:52;5.80;;;2.30;;
77234;SDS011;66253;50.526;14.974;2024-01-15T14:27:20;7.30;;;1.90;;
77234;SDS011;66253;50.526;14.974;2024-01-15T14:29:51;4.30;;;1.70;;
77234;SDS011;66253;50.526;14.974;2024-01-15T14:32:19;4.70;;;1.40;;
77234;SDS011;66253;50.526;14.974;2024-01-15T14:34:48;7.40;;;2.10;;
77234;SDS011;66253;50.526;14.974;2024-01-15T14:37:16;7.50;;;2.10;;
77234;SDS011;66253;50.526;14.974;2024-01-15T14:39:44;6.20;;;2.00;;
77234;SDS011;66253;50.526;14.974;2024-01-15T14:42:13;6.40;;;1.70;;
77234;SDS011;66253;50.526;14.974;2024-01-15T14:44:41;7.50;;;2.00;;
77234;SDS011;66253;50.526;14.974;2024-01-15T14:47:12;6.10;;;2.10;;
77234;SDS011;66253;50.526;14.974;2024-01-15T14:49:41;7.00;;;2.30;;